Time,TemperatureF,DewpointF,PressureIn,WindDirection,WindDirectionDegrees,WindSpeedMPH,WindSpeedGustMPH,Humidity,HourlyPrecipIn,Conditions,Clouds,dailyrainin,SolarRadiationWatts/m^2,SoftwareType,DateUTC
2014-01-23 00:22:00,14.0,12.0,-100.00,ESE,111,3.0,6.0,91,0.00,,,0.00,0.000000,,2014-01-23 07:22:00,
2014-01-23 00:32:00,14.0,12.0,-100.00,ESE,111,3.0,6.0,91,0.00,,,0.00,0.000000,,2014-01-23 07:32:00,
2014-01-23 00:42:00,14.0,12.0,-100.00,ESE,111,3.0,6.0,91,0.00,,,0.00,0.000000,,2014-01-23 07:42:00,
2014-01-23 00:52:00,14.0,12.0,-100.00,ESE,111,3.0,6.0,91,0.00,,,0.00,0.000000,,2014-01-23 07:52:00,
2014-01-23 01:22:00,12.0,10.0,-100.00,East,98,4.0,6.0,90,0.00,,,0.00,0.000000,,2014-01-23 08:22:00,
2014-01-23 01:32:00,12.0,10.0,-100.00,East,98,4.0,6.0,90,0.00,,,0.00,0.000000,,2014-01-23 08:32:00,
2014-01-23 01:42:00,12.0,10.0,-100.00,East,98,4.0,6.0,90,0.00,,,0.00,0.000000,,2014-01-23 08:42:00,
2014-01-23 01:52:00,12.0,10.0,-100.00,East,98,4.0,6.0,90,0.00,,,0.00,0.000000,,2014-01-23 08:52:00,
2014-01-23 02:22:00,11.0,8.0,-100.00,East,96,3.0,6.0,89,0.00,,,0.00,0.000000,,2014-01-23 09:22:00,
2014-01-23 02:33:00,11.0,8.0,-100.00,East,96,3.0,6.0,89,0.00,,,0.00,0.000000,,2014-01-23 09:33:00,
2014-01-23 02:43:00,11.0,8.0,-100.00,East,96,3.0,6.0,89,0.00,,,0.00,0.000000,,2014-01-23 09:43:00,
2014-01-23 02:53:00,11.0,8.0,-100.00,East,96,3.0,6.0,89,0.00,,,0.00,0.000000,,2014-01-23 09:53:00,
2014-01-23 03:23:00,9.0,6.0,-100.00,North,-999,0.0,6.0,87,0.00,,,0.00,0.000000,,2014-01-23 10:23:00,
2014-01-23 03:33:00,9.0,6.0,-100.00,North,-999,0.0,6.0,87,0.00,,,0.00,0.000000,,2014-01-23 10:33:00,
2014-01-23 03:43:00,9.0,6.0,-100.00,North,-999,0.0,6.0,87,0.00,,,0.00,0.000000,,2014-01-23 10:43:00,
2014-01-23 03:52:00,9.0,6.0,-100.00,North,-999,0.0,6.0,87,0.00,,,0.00,0.000000,,2014-01-23 10:52:00,
2014-01-23 04:22:00,6.0,2.0,-100.00,North,-999,0.0,7.0,84,0.00,,,0.00,0.000000,,2014-01-23 11:22:00,
2014-01-23 04:33:00,6.0,2.0,-100.00,North,-999,0.0,7.0,84,0.00,,,0.00,0.000000,,2014-01-23 11:33:00,
2014-01-23 04:43:00,6.0,2.0,-100.00,North,-999,0.0,7.0,84,0.00,,,0.00,0.000000,,2014-01-23 11:43:00,
2014-01-23 04:52:00,6.0,2.0,-100.00,North,-999,0.0,7.0,84,0.00,,,0.00,0.000000,,2014-01-23 11:52:00,
2014-01-23 05:22:00,7.0,3.0,-100.00,North,-999,0.0,2.0,85,0.00,,,0.00,0.000000,,2014-01-23 12:22:00,
2014-01-23 05:32:00,7.0,3.0,-100.00,North,-999,0.0,2.0,85,0.00,,,0.00,0.000000,,2014-01-23 12:32:00,
2014-01-23 05:42:00,7.0,3.0,-100.00,North,-999,0.0,2.0,85,0.00,,,0.00,0.000000,,2014-01-23 12:42:00,
2014-01-23 05:52:00,7.0,3.0,-100.00,North,-999,0.0,2.0,85,0.00,,,0.00,0.000000,,2014-01-23 12:52:00,
2014-01-23 06:22:00,9.0,6.0,-100.00,North,-999,0.0,2.0,86,0.00,,,0.00,0.000000,,2014-01-23 13:22:00,
2014-01-23 06:32:00,9.0,6.0,-100.00,North,-999,0.0,2.0,86,0.00,,,0.00,0.000000,,2014-01-23 13:32:00,
2014-01-23 06:42:00,9.0,6.0,-100.00,North,-999,0.0,2.0,86,0.00,,,0.00,0.000000,,2014-01-23 13:42:00,
2014-01-23 06:52:00,9.0,6.0,-100.00,North,-999,0.0,2.0,86,0.00,,,0.00,0.000000,,2014-01-23 13:52:00,
2014-01-23 07:22:00,5.0,1.0,-100.00,ESE,108,1.0,3.0,83,0.00,,,0.00,0.000000,,2014-01-23 14:22:00,
2014-01-23 07:32:00,5.0,1.0,-100.00,ESE,108,1.0,3.0,83,0.00,,,0.00,0.000000,,2014-01-23 14:32:00,
2014-01-23 07:42:00,5.0,1.0,-100.00,ESE,108,1.0,3.0,83,0.00,,,0.00,0.000000,,2014-01-23 14:42:00,
2014-01-23 07:52:00,5.0,1.0,-100.00,ESE,108,1.0,3.0,83,0.00,,,0.00,0.000000,,2014-01-23 14:52:00,
2014-01-23 08:22:00,5.0,1.0,-100.00,North,-999,0.0,2.0,83,0.00,,,0.00,7.000000,,2014-01-23 15:22:00,
2014-01-23 08:33:00,5.0,1.0,-100.00,North,-999,0.0,2.0,83,0.00,,,0.00,7.000000,,2014-01-23 15:33:00,
2014-01-23 08:43:00,5.0,1.0,-100.00,North,-999,0.0,2.0,83,0.00,,,0.00,7.000000,,2014-01-23 15:43:00,
2014-01-23 08:53:00,5.0,1.0,-100.00,North,-999,0.0,2.0,83,0.00,,,0.00,7.000000,,2014-01-23 15:53:00,
2014-01-23 12:22:00,15.0,9.0,-100.00,ESE,120,5.0,8.0,77,-99.99,,,0.02,165.000000,,2014-01-23 19:22:00,
2014-01-23 12:32:00,15.0,9.0,-100.00,ESE,120,5.0,8.0,77,-99.99,,,0.02,165.000000,,2014-01-23 19:32:00,
2014-01-23 12:42:00,15.0,9.0,-100.00,ESE,120,5.0,8.0,77,-99.99,,,0.02,165.000000,,2014-01-23 19:42:00,
2014-01-23 12:52:00,15.0,9.0,-100.00,ESE,120,5.0,8.0,77,-99.99,,,0.02,165.000000,,2014-01-23 19:52:00,
2014-01-23 13:22:00,18.0,12.0,-100.00,ESE,113,3.0,7.0,76,0.00,,,0.02,150.000000,,2014-01-23 20:22:00,
2014-01-23 13:32:00,18.0,12.0,-100.00,ESE,113,3.0,7.0,76,0.00,,,0.02,150.000000,,2014-01-23 20:32:00,
2014-01-23 13:42:00,18.0,12.0,-100.00,ESE,113,3.0,7.0,76,0.00,,,0.02,150.000000,,2014-01-23 20:42:00,
2014-01-23 13:52:00,18.0,12.0,-100.00,ESE,113,3.0,7.0,76,0.00,,,0.02,150.000000,,2014-01-23 20:52:00,
2014-01-23 14:22:00,14.0,9.0,-100.00,SSE,149,2.0,6.0,80,0.00,,,0.02,83.000000,,2014-01-23 21:22:00,
2014-01-23 14:33:00,14.0,9.0,-100.00,SSE,149,2.0,6.0,80,0.00,,,0.02,83.000000,,2014-01-23 21:33:00,
2014-01-23 14:43:00,14.0,9.0,-100.00,SSE,149,2.0,6.0,80,0.00,,,0.02,83.000000,,2014-01-23 21:43:00,
2014-01-23 14:53:00,14.0,9.0,-100.00,SSE,149,2.0,6.0,80,0.00,,,0.02,83.000000,,2014-01-23 21:53:00,
2014-01-23 15:42:00,20.0,13.0,-100.00,ESE,114,4.0,5.0,73,0.00,,,0.02,166.000000,,2014-01-23 22:42:00,
2014-01-23 15:53:00,20.0,13.0,-100.00,ESE,114,4.0,5.0,73,0.00,,,0.02,166.000000,,2014-01-23 22:53:00,
2014-01-23 16:22:00,14.0,8.0,-100.00,SE,129,3.0,6.0,78,0.00,,,0.02,132.000000,,2014-01-23 23:22:00,
2014-01-23 16:33:00,14.0,8.0,-100.00,SE,129,3.0,6.0,78,0.00,,,0.02,132.000000,,2014-01-23 23:33:00,
2014-01-23 16:43:00,14.0,8.0,-100.00,SE,129,3.0,6.0,78,0.00,,,0.02,132.000000,,2014-01-23 23:43:00,
2014-01-23 16:53:00,14.0,8.0,-100.00,SE,129,3.0,6.0,78,0.00,,,0.02,132.000000,,2014-01-23 23:53:00,
2014-01-23 17:22:00,10.0,6.0,-100.00,West,267,2.0,3.0,84,0.00,,,0.02,11.000000,,2014-01-24 00:22:00,
2014-01-23 17:32:00,10.0,6.0,-100.00,West,267,2.0,3.0,84,0.00,,,0.02,11.000000,,2014-01-24 00:32:00,
2014-01-23 17:42:00,10.0,6.0,-100.00,West,267,2.0,3.0,84,0.00,,,0.02,11.000000,,2014-01-24 00:42:00,
2014-01-23 17:52:00,10.0,6.0,-100.00,West,267,2.0,3.0,84,0.00,,,0.02,11.000000,,2014-01-24 00:52:00,
2014-01-23 18:22:00,8.0,4.0,-100.00,West,280,2.0,3.0,83,0.00,,,0.02,2.000000,,2014-01-24 01:22:00,
2014-01-23 18:32:00,8.0,4.0,-100.00,West,280,2.0,3.0,83,0.00,,,0.02,2.000000,,2014-01-24 01:32:00,
2014-01-23 18:42:00,8.0,4.0,-100.00,West,280,2.0,3.0,83,0.00,,,0.02,2.000000,,2014-01-24 01:42:00,
2014-01-23 18:52:00,8.0,4.0,-100.00,West,280,2.0,3.0,83,0.00,,,0.02,2.000000,,2014-01-24 01:52:00,
2014-01-23 19:22:00,9.0,4.0,-100.00,West,273,2.0,3.0,79,0.00,,,0.02,0.000000,,2014-01-24 02:22:00,
2014-01-23 19:32:00,9.0,4.0,-100.00,West,273,2.0,3.0,79,0.00,,,0.02,0.000000,,2014-01-24 02:32:00,
2014-01-23 19:42:00,9.0,4.0,-100.00,West,273,2.0,3.0,79,0.00,,,0.02,0.000000,,2014-01-24 02:42:00,
2014-01-23 19:52:00,9.0,4.0,-100.00,West,273,2.0,3.0,79,0.00,,,0.02,0.000000,,2014-01-24 02:52:00,
2014-01-23 20:22:00,12.0,0.0,-100.00,West,270,2.0,4.0,58,0.00,,,0.02,0.000000,,2014-01-24 03:22:00,
2014-01-23 20:33:00,12.0,0.0,-100.00,West,270,2.0,4.0,58,0.00,,,0.02,0.000000,,2014-01-24 03:33:00,
2014-01-23 20:43:00,12.0,0.0,-100.00,West,270,2.0,4.0,58,0.00,,,0.02,0.000000,,2014-01-24 03:43:00,
2014-01-23 20:53:00,12.0,0.0,-100.00,West,270,2.0,4.0,58,0.00,,,0.02,0.000000,,2014-01-24 03:53:00,
2014-01-23 21:23:00,12.0,2.0,-100.00,West,271,2.0,5.0,62,0.00,,,0.02,0.000000,,2014-01-24 04:23:00,
2014-01-23 21:33:00,12.0,2.0,-100.00,West,271,2.0,5.0,62,0.00,,,0.02,0.000000,,2014-01-24 04:33:00,
2014-01-23 21:43:00,12.0,2.0,-100.00,West,271,2.0,5.0,62,0.00,,,0.02,0.000000,,2014-01-24 04:43:00,
2014-01-23 21:53:00,12.0,2.0,-100.00,West,271,2.0,5.0,62,0.00,,,0.02,0.000000,,2014-01-24 04:53:00,
2014-01-23 22:22:00,13.0,3.0,-100.00,WNW,295,2.0,3.0,63,0.00,,,0.02,0.000000,,2014-01-24 05:22:00,
2014-01-23 22:33:00,13.0,3.0,-100.00,WNW,295,2.0,3.0,63,0.00,,,0.02,0.000000,,2014-01-24 05:33:00,
2014-01-23 22:42:00,13.0,3.0,-100.00,WNW,295,2.0,3.0,63,0.00,,,0.02,0.000000,,2014-01-24 05:42:00,
2014-01-23 22:52:00,13.0,3.0,-100.00,WNW,295,2.0,3.0,63,0.00,,,0.02,0.000000,,2014-01-24 05:52:00,
2014-01-23 23:22:00,16.0,0.0,-100.00,NW,309,2.0,5.0,48,0.00,,,0.02,0.000000,,2014-01-24 06:22:00,
2014-01-23 23:32:00,16.0,0.0,-100.00,NW,309,2.0,5.0,48,0.00,,,0.02,0.000000,,2014-01-24 06:32:00,
2014-01-23 23:42:00,16.0,0.0,-100.00,NW,309,2.0,5.0,48,0.00,,,0.02,0.000000,,2014-01-24 06:42:00,
2014-01-23 23:52:00,16.0,0.0,-100.00,NW,309,2.0,5.0,48,0.00,,,0.02,0.000000,,2014-01-24 06:52:00,